createdAt,value
2022-09-26T00:00:00.193Z,1014.15
2022-09-26T00:10:00.163Z,1014.03
2022-09-26T00:20:00.167Z,1013.94
2022-09-26T00:30:00.157Z,1013.85
2022-09-26T00:40:00.137Z,1013.92
2022-09-26T00:50:00.143Z,1013.90
2022-09-26T01:00:00.230Z,1013.86
2022-09-26T01:10:00.149Z,1013.75
2022-09-26T01:20:00.149Z,1013.66
2022-09-26T01:30:01.160Z,1013.60
2022-09-26T01:40:00.156Z,1013.45
2022-09-26T01:50:00.160Z,1013.34
2022-09-26T02:00:00.159Z,1013.40
2022-09-26T02:10:00.153Z,1013.26
2022-09-26T02:20:00.160Z,1013.06
2022-09-26T02:30:00.124Z,1013.03
2022-09-26T02:40:00.158Z,1012.91
2022-09-26T02:50:00.153Z,1012.85
2022-09-26T03:00:00.165Z,1012.72
2022-09-26T03:10:00.131Z,1012.68
2022-09-26T03:20:00.171Z,1012.60
2022-09-26T03:30:00.160Z,1012.64
2022-09-26T03:40:00.149Z,1012.65
2022-09-26T03:50:00.164Z,1012.42
2022-09-26T04:00:00.163Z,1012.43
2022-09-26T04:10:00.140Z,1012.34
2022-09-26T04:20:00.138Z,1012.18
2022-09-26T04:30:00.143Z,1012.18
2022-09-26T04:40:00.159Z,1012.30
2022-09-26T04:50:00.130Z,1012.31
2022-09-26T05:00:00.157Z,1012.32
2022-09-26T05:10:00.154Z,1012.34
2022-09-26T05:20:00.141Z,1012.28
2022-09-26T05:30:00.139Z,1012.28
2022-09-26T05:40:00.172Z,1012.22
2022-09-26T05:50:00.173Z,1012.20
2022-09-26T06:00:00.241Z,1012.14
2022-09-26T06:10:00.145Z,1012.04
2022-09-26T06:20:00.146Z,1011.99
2022-09-26T06:30:00.125Z,1011.90
2022-09-26T06:40:00.185Z,1011.75
2022-09-26T06:50:00.154Z,1011.63
2022-09-26T07:00:00.128Z,1011.47
2022-09-26T07:10:00.149Z,1011.37
2022-09-26T07:20:01.647Z,1011.41
2022-09-26T07:30:00.142Z,1011.31
2022-09-26T07:40:01.943Z,1011.19
2022-09-26T07:50:00.143Z,1011.08
2022-09-26T08:00:01.316Z,1011.06
2022-09-26T08:10:00.165Z,1011.14
2022-09-26T08:20:00.195Z,1011.05
2022-09-26T08:30:00.188Z,1010.91
2022-09-26T08:40:00.171Z,1010.89
2022-09-26T08:50:00.198Z,1010.80
2022-09-26T09:00:00.224Z,1010.69
2022-09-26T09:10:00.283Z,1010.65
2022-09-26T09:20:00.168Z,1010.49
2022-09-26T09:30:00.161Z,1010.39
2022-09-26T09:40:00.183Z,1010.31
2022-09-26T09:50:00.166Z,1010.20
2022-09-26T10:00:01.943Z,1010.16
2022-09-26T10:10:00.145Z,1009.93
2022-09-26T10:20:00.207Z,1009.77
2022-09-26T10:30:00.148Z,1009.67
2022-09-26T10:40:00.213Z,1009.53
2022-09-26T10:50:00.150Z,1009.42
2022-09-26T11:00:00.192Z,1009.45
2022-09-26T11:10:00.159Z,1009.36
2022-09-26T11:20:00.135Z,1009.28
2022-09-26T11:30:00.168Z,1009.12
2022-09-26T11:40:00.176Z,1009.06
2022-09-26T11:50:00.173Z,1008.98
2022-09-26T12:00:00.169Z,1008.88
2022-09-26T12:10:00.123Z,1008.76
2022-09-26T12:20:00.162Z,1008.51
2022-09-26T12:30:00.152Z,1008.32
2022-09-26T12:40:00.144Z,1008.25
2022-09-26T12:50:00.174Z,1008.22
2022-09-26T13:00:00.169Z,1008.09
2022-09-26T13:10:00.108Z,1008.08
2022-09-26T13:20:00.161Z,1008.05
2022-09-26T13:30:00.166Z,1007.85
2022-09-26T13:40:00.173Z,1007.76
2022-09-26T13:50:00.205Z,1007.70
2022-09-26T14:00:00.162Z,1007.51
2022-09-26T14:10:00.143Z,1007.31
2022-09-26T14:20:00.184Z,1007.21
2022-09-26T14:30:00.149Z,1007.07
2022-09-26T14:40:00.212Z,1007.02
2022-09-26T14:50:00.159Z,1006.90
2022-09-26T15:00:00.212Z,1006.86
2022-09-26T15:10:00.101Z,1006.81
2022-09-26T15:20:00.162Z,1006.69
2022-09-26T15:30:00.126Z,1006.75
2022-09-26T15:40:00.268Z,1006.60
2022-09-26T15:50:00.142Z,1006.49
2022-09-26T16:00:00.142Z,1006.39
2022-09-26T16:10:00.127Z,1006.33
2022-09-26T16:20:00.293Z,1006.30
2022-09-26T16:30:04.120Z,1006.22
2022-09-26T16:40:00.144Z,1006.16
2022-09-26T16:50:00.196Z,1006.13
2022-09-26T17:00:00.147Z,1006.08
2022-09-26T17:10:00.141Z,1006.03
2022-09-26T17:20:00.267Z,1005.99
2022-09-26T17:30:00.167Z,1005.91
2022-09-26T17:40:00.224Z,1005.92
2022-09-26T17:50:00.147Z,1005.83
2022-09-26T18:00:02.034Z,1005.84
2022-09-26T18:10:00.166Z,1005.74
2022-09-26T18:20:00.148Z,1005.64
2022-09-26T18:30:00.153Z,1005.67
2022-09-26T18:40:03.742Z,1005.64
2022-09-26T18:50:00.157Z,1005.57
2022-09-26T19:00:00.215Z,1005.63
2022-09-26T19:10:00.187Z,1005.57
2022-09-26T19:20:00.155Z,1005.50
2022-09-26T19:30:00.139Z,1005.41
2022-09-26T19:40:00.174Z,1005.29
2022-09-26T19:50:00.214Z,1005.23
2022-09-26T20:00:00.184Z,1005.17
2022-09-26T20:10:00.162Z,1005.15
2022-09-26T20:20:00.155Z,1005.05
2022-09-26T20:30:00.203Z,1004.94
2022-09-26T20:40:00.186Z,1004.87
2022-09-26T20:50:00.180Z,1004.76
2022-09-26T21:00:00.156Z,1004.65
2022-09-26T21:10:00.129Z,1004.53
2022-09-26T21:20:00.209Z,1004.46
2022-09-26T21:30:00.161Z,1004.41
2022-09-26T21:40:00.177Z,1004.33
2022-09-26T21:50:00.154Z,1004.22
2022-09-26T22:00:00.231Z,1004.06
2022-09-26T22:10:00.150Z,1003.92
2022-09-26T22:20:00.203Z,1003.74
2022-09-26T22:30:00.195Z,1003.59
2022-09-26T22:40:00.180Z,1003.39
2022-09-26T22:50:00.178Z,1003.30
2022-09-26T23:00:00.209Z,1003.26
2022-09-26T23:10:00.216Z,1003.07
2022-09-26T23:20:00.189Z,1002.84
2022-09-26T23:30:00.157Z,1002.69
2022-09-26T23:40:00.185Z,1002.58
2022-09-26T23:50:00.179Z,1002.49
